Time;durP1;ratioP1;P1;durP2;ratioP2;P2;SDS_P1;SDS_P2;PMS_P1;PMS_P2;Temp;Humidity;BMP_temperature;BMP_pressure;BME280_temperature;BME280_humidity;BME280_pressure;Samples;Min_cycle;Max_cycle;Signal;HPM_P1;HPM_P2
2022/06/04 00:00:40;;;;;;;19.00;11.80;;;;;;;19.34;100.00;62874.34;5091505;28;20208;-73
2022/06/04 00:03:08;;;;;;;15.03;11.07;;;;;;;19.61;100.00;62892.63;5091095;28;20694;-74
2022/06/04 00:05:39;;;;;;;15.33;11.43;;;;;;;19.73;100.00;62907.66;5091343;28;20219;-75
2022/06/04 00:08:07;;;;;;;15.97;11.57;;;;;;;19.96;100.00;62940.28;5091064;28;20196;-74
2022/06/04 00:16:09;;;;;;;19.07;10.90;;;;;;;19.91;100.00;62932.81;5095370;28;20309;-73
2022/06/04 00:18:38;;;;;;;16.70;12.67;;;;;;;19.83;100.00;62921.03;5095061;28;20227;-73
2022/06/04 00:21:06;;;;;;;17.17;12.47;;;;;;;19.77;100.00;62917.69;5076805;28;20210;-74
2022/06/04 00:23:35;;;;;;;16.80;12.63;;;;;;;19.90;100.00;62928.63;5094552;28;20195;-73
2022/06/04 00:26:04;;;;;;;16.97;12.37;;;;;;;19.25;100.00;62858.88;5094716;28;20203;-74
2022/06/04 00:28:32;;;;;;;16.87;12.37;;;;;;;19.92;100.00;62930.78;5094817;28;20215;-73
2022/06/04 00:31:00;;;;;;;17.93;12.87;;;;;;;19.69;100.00;62905.91;5094865;28;20223;-75
2022/06/04 00:33:27;;;;;;;19.83;12.73;;;;;;;19.86;100.00;62927.41;5094694;28;20196;-75
2022/06/04 00:35:57;;;;;;;15.60;11.50;;;;;;;19.90;100.00;62933.78;5094689;28;20196;-73
2022/06/04 00:38:27;;;;;;;13.07;9.30;;;;;;;19.58;100.00;62899.72;5094843;28;20191;-73
2022/06/04 00:41:04;;;;;;;11.30;9.17;;;;;;;19.90;100.00;62928.63;5076594;28;20724;-74
2022/06/04 00:43:34;;;;;;;12.20;8.03;;;;;;;19.67;100.00;62909.47;5076440;28;20203;-73
2022/06/04 00:46:47;;;;;;;15.13;8.30;;;;;;;19.52;100.00;62890.13;5094406;28;20702;-72
2022/06/04 00:49:16;;;;;;;11.00;7.70;;;;;;;19.51;100.00;62889.03;5094404;28;20214;-72
2022/06/04 00:51:48;;;;;;;10.20;7.80;;;;;;;19.55;100.00;62893.91;5094605;28;20726;-74
2022/06/04 00:54:17;;;;;;;11.17;7.60;;;;;;;19.61;100.00;62902.44;5095173;28;20200;-74
2022/06/04 00:56:53;;;;;;;8.50;7.67;;;;;;;19.65;100.00;62902.13;5094415;28;20549;-72
2022/06/04 00:59:34;;;;;;;13.67;7.50;;;;;;;19.63;100.00;62904.59;5094233;28;20288;-72
2022/06/04 01:02:12;;;;;;;12.07;8.10;;;;;;;17.57;100.00;62679.13;5094440;28;20202;-72
2022/06/04 01:04:52;;;;;;;9.07;7.27;;;;;;;19.35;100.00;62870.25;5094318;28;20242;-73
2022/06/04 01:07:49;;;;;;;17.47;8.17;;;;;;;19.46;100.00;62881.06;5094486;28;20203;-73
2022/06/04 01:10:31;;;;;;;10.27;8.23;;;;;;;18.58;100.00;62787.06;5089055;28;20203;-72
2022/06/04 01:13:09;;;;;;;10.83;7.93;;;;;;;19.55;100.00;62893.91;5094162;28;20200;-74
2022/06/04 01:15:57;;;;;;;9.03;7.30;;;;;;;19.69;100.00;62906.44;5094106;28;20195;-72
2022/06/04 01:18:42;;;;;;;9.90;7.87;;;;;;;19.70;100.00;62912.16;5093684;28;20203;-72
2022/06/04 01:21:21;;;;;;;12.80;7.93;;;;;;;19.57;100.00;62892.94;5080767;28;20227;-73
2022/06/04 01:24:16;;;;;;;13.10;8.10;;;;;;;19.53;100.00;62888.63;5092992;28;20203;-75
2022/06/04 01:26:55;;;;;;;12.00;7.60;;;;;;;19.63;100.00;62899.41;5093863;28;20211;-73
2022/06/04 01:29:27;;;;;;;12.37;8.00;;;;;;;19.61;100.00;62897.25;5093826;28;20204;-73
2022/06/04 01:32:02;;;;;;;14.57;7.77;;;;;;;19.59;100.00;62895.66;5093831;28;20722;-75
2022/06/04 01:34:34;;;;;;;11.87;7.40;;;;;;;19.06;100.00;62840.94;5093646;28;20259;-73
2022/06/04 01:37:05;;;;;;;10.60;7.90;;;;;;;19.26;100.00;62860.50;5093513;28;20208;-71
2022/06/04 01:42:22;;;;;;;12.57;8.03;;;;;;;19.38;100.00;62873.50;5092498;28;20307;-75
2022/06/04 01:44:51;;;;;;;11.43;7.70;;;;;;;18.76;100.00;62806.50;5094246;28;20260;-72
2022/06/04 01:47:19;;;;;;;10.40;8.47;;;;;;;19.38;100.00;62872.41;5093076;28;20237;-73
2022/06/04 01:49:51;;;;;;;10.47;7.77;;;;;;;19.40;100.00;62877.16;5093191;28;20207;-73
2022/06/04 01:52:26;;;;;;;12.23;8.40;;;;;;;19.35;100.00;62872.84;5093349;28;20659;-73
2022/06/04 01:54:59;;;;;;;12.53;8.60;;;;;;;19.31;100.00;62865.91;5093019;28;20224;-74
2022/06/04 01:57:38;;;;;;;13.87;8.40;;;;;;;19.33;100.00;62873.25;5093436;28;20218;-73
2022/06/04 02:00:11;;;;;;;9.97;8.57;;;;;;;19.30;100.00;62864.81;5092703;28;20224;-73
2022/06/04 02:02:44;;;;;;;15.77;9.10;;;;;;;19.16;100.00;62844.00;5093081;28;20196;-72
2022/06/04 02:05:19;;;;;;;14.83;9.23;;;;;;;19.10;100.00;62843.22;5092977;28;20211;-73
2022/06/04 02:07:49;;;;;;;12.37;8.57;;;;;;;19.11;100.00;62846.91;5092941;28;20195;-74
2022/06/04 02:10:23;;;;;;;18.53;8.50;;;;;;;18.48;100.00;62781.44;5092965;28;20203;-73
2022/06/04 02:12:56;;;;;;;11.27;8.70;;;;;;;19.19;100.00;62855.53;5092805;28;20210;-73
2022/06/04 02:15:30;;;;;;;11.67;9.63;;;;;;;18.63;100.00;62791.94;5093010;28;20261;-74
2022/06/04 02:17:59;;;;;;;13.23;9.67;;;;;;;19.02;100.00;62834.59;5092598;28;20297;-75
2022/06/04 02:20:27;;;;;;;14.40;9.93;;;;;;;18.95;100.00;62829.63;5092547;28;20220;-73
2022/06/04 02:22:55;;;;;;;11.40;9.03;;;;;;;18.89;100.00;62825.72;5092731;28;20203;-74
2022/06/04 02:25:22;;;;;;;10.40;8.93;;;;;;;18.87;100.00;62823.00;5092648;28;20210;-71
2022/06/04 02:27:52;;;;;;;11.10;8.90;;;;;;;19.04;100.00;62841.34;5092554;28;20196;-74
2022/06/04 02:30:20;;;;;;;9.53;8.27;;;;;;;19.07;100.00;62840.00;5092485;28;20215;-73
2022/06/04 02:33:03;;;;;;;11.17;8.50;;;;;;;19.07;100.00;62842.56;5092699;28;20231;-74
2022/06/04 02:35:36;;;;;;;12.70;8.70;;;;;;;19.04;100.00;62841.91;5092700;28;20207;-74
2022/06/04 02:38:10;;;;;;;18.50;8.97;;;;;;;19.14;100.00;62847.53;5092562;28;20196;-71
2022/06/04 02:40:42;;;;;;;11.80;8.70;;;;;;;19.10;100.00;62843.22;5092085;28;20661;-72
2022/06/04 02:43:19;;;;;;;14.90;8.80;;;;;;;18.69;100.00;62798.97;5092464;28;20663;-75
2022/06/04 02:45:52;;;;;;;14.37;8.87;;;;;;;19.22;100.00;62853.59;5092563;28;20261;-73
2022/06/04 02:48:25;;;;;;;9.80;8.60;;;;;;;19.26;100.00;62862.53;5092391;28;20203;-74
2022/06/04 02:50:57;;;;;;;13.83;9.33;;;;;;;19.21;100.00;62860.28;5092247;28;20558;-74
2022/06/04 02:53:25;;;;;;;13.50;8.87;;;;;;;18.79;100.00;62814.91;5092219;28;20227;-73
2022/06/04 02:55:56;;;;;;;12.53;9.23;;;;;;;19.19;100.00;62852.41;5092653;28;20203;-74
2022/06/04 02:58:28;;;;;;;11.40;9.33;;;;;;;18.88;100.00;62819.47;5093931;28;20210;-72
2022/06/04 03:00:58;;;;;;;10.47;8.77;;;;;;;19.17;100.00;62850.25;5093141;28;20231;-74
2022/06/04 03:03:25;;;;;;;11.17;9.20;;;;;;;19.11;100.00;62841.72;5091866;28;20204;-73
2022/06/04 03:05:56;;;;;;;13.97;9.90;;;;;;;19.15;100.00;62848.63;5092016;28;20195;-73
2022/06/04 03:08:25;;;;;;;12.07;9.20;;;;;;;19.13;100.00;62846.47;5092087;28;20521;-74
2022/06/04 03:10:53;;;;;;;11.30;8.87;;;;;;;18.98;100.00;62830.25;5091835;28;20199;-74
2022/06/04 03:13:22;;;;;;;11.67;9.13;;;;;;;19.08;100.00;62841.06;5091874;28;20206;-74
2022/06/04 03:15:51;;;;;;;13.83;9.57;;;;;;;18.64;100.00;62796.13;5091777;28;20196;-72
2022/06/04 03:18:19;;;;;;;15.67;9.87;;;;;;;18.93;100.00;62824.88;5078064;28;20203;-74
2022/06/04 03:20:47;;;;;;;11.03;8.67;;;;;;;18.86;100.00;62819.88;5091576;28;20234;-73
2022/06/04 03:23:14;;;;;;;16.63;9.37;;;;;;;19.20;100.00;62854.03;5091809;28;20226;-73
2022/06/04 03:25:44;;;;;;;14.93;8.50;;;;;;;19.42;100.00;62874.16;5091611;28;20204;-73
2022/06/04 03:28:11;;;;;;;15.53;9.43;;;;;;;19.00;100.00;62835.00;5091486;28;20199;-74
2022/06/04 03:30:39;;;;;;;15.83;10.60;;;;;;;19.04;100.00;62838.78;5091567;28;20230;-73
2022/06/04 03:33:07;;;;;;;14.80;10.40;;;;;;;19.00;100.00;62831.88;5091876;28;20286;-73
2022/06/04 03:35:34;;;;;;;15.73;9.60;;;;;;;18.96;100.00;62827.56;5091778;28;20208;-75
2022/06/04 03:38:02;;;;;;;16.67;10.03;;;;;;;18.99;100.00;62828.22;5073500;28;20216;-74
2022/06/04 03:40:30;;;;;;;18.03;8.80;;;;;;;19.04;100.00;62836.19;5090961;28;20698;-73
2022/06/04 03:42:58;;;;;;;11.67;8.43;;;;;;;19.09;100.00;62844.72;5091508;28;20257;-74
2022/06/04 03:45:27;;;;;;;11.03;7.90;;;;;;;19.26;100.00;62860.50;5073253;28;20207;-73
2022/06/04 03:47:54;;;;;;;13.23;8.57;;;;;;;19.28;100.00;62862.66;5090860;28;20283;-73
2022/06/04 03:50:25;;;;;;;11.87;8.13;;;;;;;19.51;100.00;62887.00;5091564;28;20253;-73
2022/06/04 03:52:52;;;;;;;10.60;7.77;;;;;;;19.58;100.00;62896.63;5091266;28;20678;-72
2022/06/04 03:55:20;;;;;;;20.13;8.87;;;;;;;19.62;100.00;62898.88;5091372;28;20260;-73
2022/06/04 03:57:50;;;;;;;13.43;7.33;;;;;;;19.76;100.00;62914.00;5091175;28;20204;-74
2022/06/04 04:00:21;;;;;;;11.27;8.27;;;;;;;19.96;100.00;62935.63;5090819;28;20242;-74
2022/06/04 04:02:52;;;;;;;12.23;8.73;;;;;;;20.04;100.00;62941.16;5091546;28;20202;-74
2022/06/04 04:05:23;;;;;;;11.43;8.30;;;;;;;20.29;100.00;62968.19;5091120;28;20199;-74
2022/06/04 04:07:51;;;;;;;13.27;8.60;;;;;;;20.21;100.00;62962.13;5091232;28;20236;-74
2022/06/04 04:10:19;;;;;;;9.80;8.80;;;;;;;20.15;100.00;62955.63;5090972;28;20290;-73
2022/06/04 04:12:46;;;;;;;15.23;8.73;;;;;;;20.47;100.00;62990.25;5091374;28;20203;-75
2022/06/04 04:15:15;;;;;;;13.23;7.90;;;;;;;20.43;100.00;62985.94;5091124;28;20204;-73
2022/06/04 04:17:44;;;;;;;12.50;7.97;;;;;;;20.64;100.00;63008.66;5076826;28;20689;-73
2022/06/04 04:20:15;;;;;;;15.37;7.57;;;;;;;20.58;100.00;63001.63;5091172;28;20590;-73
2022/06/04 04:22:43;;;;;;;9.77;7.80;;;;;;;20.73;100.00;63018.38;5072860;28;20215;-73
2022/06/04 04:25:12;;;;;;;9.83;7.33;;;;;;;20.82;100.00;63028.13;5091340;28;20200;-73
2022/06/04 04:27:39;;;;;;;7.53;6.73;;;;;;;20.99;100.00;63046.50;5090927;28;20203;-74
2022/06/04 04:30:07;;;;;;;8.53;7.27;;;;;;;21.12;100.00;63059.50;5091209;28;20208;-73
2022/06/04 04:32:35;;;;;;;11.63;7.83;;;;;;;21.42;100.00;63091.97;5090661;28;20235;-76
2022/06/04 04:35:02;;;;;;;11.37;8.77;;;;;;;21.54;100.00;63105.50;5090940;28;20723;-74
2022/06/04 04:37:29;;;;;;;11.47;7.50;;;;;;;21.73;100.00;63125.53;5090585;28;20662;-73
2022/06/04 04:40:00;;;;;;;15.23;8.27;;;;;;;21.73;100.00;63125.53;5090733;28;20591;-73
2022/06/04 04:42:27;;;;;;;12.97;8.43;;;;;;;21.99;100.00;63153.72;5090753;28;20196;-73
2022/06/04 04:44:55;;;;;;;15.07;8.30;;;;;;;22.02;100.00;63156.97;5091130;28;20308;-73
2022/06/04 04:47:22;;;;;;;11.07;7.97;;;;;;;22.03;100.00;63158.06;5090767;28;20284;-73
2022/06/04 04:49:51;;;;;;;11.33;8.27;;;;;;;22.06;100.00;63163.34;5090727;28;20202;-73
2022/06/04 04:52:17;;;;;;;11.10;8.33;;;;;;;22.16;100.00;63172.13;5090728;28;20670;-74
2022/06/04 04:54:45;;;;;;;11.90;8.10;;;;;;;22.46;100.00;63204.63;5090879;28;20207;-74
2022/06/04 04:57:14;;;;;;;10.23;7.87;;;;;;;22.66;100.00;63226.31;5091069;28;20698;-74
2022/06/04 04:59:41;;;;;;;10.83;7.10;;;;;;;22.91;100.00;63252.31;5093722;28;20603;-73
2022/06/04 05:02:09;;;;;;;10.30;6.70;;;;;;;22.82;100.00;63245.19;5094352;28;20300;-74
2022/06/04 05:04:37;;;;;;;9.90;7.30;;;;;;;22.82;100.00;63243.09;5093981;28;20210;-73
2022/06/04 05:07:04;;;;;;;9.47;7.13;;;;;;;22.10;100.00;63168.22;5094179;28;20673;-72
2022/06/04 05:09:32;;;;;;;11.67;8.00;;;;;;;22.23;100.00;63177.13;5094251;28;20212;-74
2022/06/04 05:11:59;;;;;;;12.10;8.47;;;;;;;22.18;100.00;63174.28;5094247;28;20689;-73
2022/06/04 05:14:28;;;;;;;10.43;8.13;;;;;;;22.35;100.00;63195.31;5094295;28;20214;-73
2022/06/04 05:16:55;;;;;;;10.83;8.00;;;;;;;22.80;100.00;63235.22;5093632;28;20287;-72
2022/06/04 05:19:23;;;;;;;11.30;7.93;;;;;;;22.81;100.00;63239.44;5094229;28;20199;-73
2022/06/04 05:21:53;;;;;;;9.77;7.67;;;;;;;22.81;100.00;63244.09;5093848;28;20259;-74
2022/06/04 05:24:27;;;;;;;9.70;7.40;;;;;;;22.99;100.00;63258.94;5093855;28;20236;-74
2022/06/04 05:26:55;;;;;;;9.40;7.53;;;;;;;22.97;100.00;63259.38;5093788;28;20208;-73
2022/06/04 05:29:23;;;;;;;9.00;7.37;;;;;;;23.19;100.00;63282.66;5093506;28;20212;-76
2022/06/04 05:31:53;;;;;;;11.33;7.37;;;;;;;23.43;100.00;63309.25;5093727;28;20231;-75
2022/06/04 05:34:21;;;;;;;8.07;7.27;;;;;;;23.65;100.00;63335.19;5093742;28;20204;-74
2022/06/04 05:36:51;;;;;;;11.53;7.40;;;;;;;23.69;100.00;63336.91;5093356;28;20203;-75
2022/06/04 05:39:18;;;;;;;11.93;7.20;;;;;;;23.96;100.00;63366.22;5093421;28;20253;-73
2022/06/04 05:41:45;;;;;;;18.30;7.57;;;;;;;24.02;100.00;63372.72;5093354;28;20224;-74
2022/06/04 05:44:13;;;;;;;8.57;6.73;;;;;;;24.16;100.00;63387.94;5093616;28;20207;-74
2022/06/04 05:46:42;;;;;;;9.10;7.00;;;;;;;23.53;100.00;63316.97;5075455;28;20200;-73
2022/06/04 05:49:11;;;;;;;13.10;7.47;;;;;;;24.60;100.00;63431.97;5093409;28;20247;-74
2022/06/04 05:51:42;;;;;;;11.83;6.97;;;;;;;24.41;100.00;63414.50;5093627;28;20283;-75
2022/06/04 05:54:10;;;;;;;9.23;7.00;;;;;;;24.59;100.00;63430.91;5093344;28;20596;-73
2022/06/04 05:56:39;;;;;;;8.33;7.23;;;;;;;24.63;100.00;63437.84;5093079;28;20202;-75
2022/06/04 05:59:08;;;;;;;11.73;7.17;;;;;;;24.88;100.00;63467.59;5093193;28;20229;-73
2022/06/04 06:01:38;;;;;;;18.30;7.70;;;;;;;24.70;100.00;63446.00;5092678;28;20732;-75
2022/06/04 06:04:05;;;;;;;19.07;8.37;;;;;;;24.80;100.00;63456.88;5093359;28;20210;-75
2022/06/04 06:06:35;;;;;;;13.83;7.40;;;;;;;25.47;100.00;63534.31;5093003;28;20210;-73
2022/06/04 06:09:09;;;;;;;10.73;7.37;;;;;;;24.98;100.00;63475.84;5092599;28;20203;-74
2022/06/04 06:11:36;;;;;;;20.53;8.10;;;;;;;25.29;100.00;63506.94;5092940;28;20234;-74
2022/06/04 06:14:07;;;;;;;15.57;8.00;;;;;;;25.12;100.00;63488.44;5092974;28;20295;-73
2022/06/04 06:16:36;;;;;;;31.47;9.13;;;;;;;25.93;100.00;63581.69;5092821;28;20199;-76
2022/06/04 06:19:03;;;;;;;15.03;8.57;;;;;;;25.86;100.00;63568.84;5092636;28;20195;-73
2022/06/04 06:21:34;;;;;;;12.53;8.27;;;;;;;25.82;100.00;63561.34;5091866;28;20620;-75
2022/06/04 06:24:01;;;;;;;14.40;8.83;;;;;;;25.75;100.00;63556.91;5092915;28;20230;-72
2022/06/04 06:26:30;;;;;;;14.87;9.07;;;;;;;25.63;100.00;63546.50;5074486;28;20230;-73
2022/06/04 06:28:59;;;;;;;21.40;9.50;;;;;;;25.81;100.00;63566.03;5093058;28;20222;-73
2022/06/04 06:31:28;;;;;;;16.57;8.77;;;;;;;25.74;100.00;63558.44;5092035;28;20597;-74
2022/06/04 06:33:55;;;;;;;19.40;10.27;;;;;;;25.76;100.00;63558.00;5092259;28;20200;-73
2022/06/04 06:36:23;;;;;;;19.00;10.53;;;;;;;25.37;100.00;63518.22;5092403;28;20657;-74
2022/06/04 06:38:52;;;;;;;17.33;11.07;;;;;;;25.12;100.00;63491.06;5074178;28;20290;-75
2022/06/04 06:41:21;;;;;;;20.53;10.63;;;;;;;24.75;100.00;63445.69;5091978;28;20235;-74
2022/06/04 06:43:50;;;;;;;14.83;10.57;;;;;;;25.08;100.00;63487.25;5092066;28;20262;-73
2022/06/04 06:46:20;;;;;;;25.60;11.87;;;;;;;24.83;100.00;63459.59;5074170;28;20596;-73
2022/06/04 06:48:50;;;;;;;17.10;10.37;;;;;;;24.78;100.00;63456.75;5091996;28;20213;-75
2022/06/04 06:51:19;;;;;;;21.80;10.63;;;;;;;24.83;100.00;63460.13;5091955;28;20200;-74
2022/06/04 06:53:47;;;;;;;25.73;11.40;;;;;;;25.12;100.00;63491.06;5091804;28;20211;-77
2022/06/04 06:56:19;;;;;;;22.40;11.07;;;;;;;25.58;100.00;63541.03;5091927;28;20204;-76
2022/06/04 06:58:48;;;;;;;22.67;10.87;;;;;;;25.54;100.00;63536.69;5092515;28;20211;-75
2022/06/04 07:01:15;;;;;;;25.53;10.00;;;;;;;25.49;100.00;63531.28;5092209;28;20265;-76
2022/06/04 07:03:46;;;;;;;20.67;10.27;;;;;;;25.45;100.00;63526.94;5091521;28;20212;-74
2022/06/04 07:06:14;;;;;;;13.77;8.87;;;;;;;25.88;100.00;63573.63;5091983;28;20214;-74
2022/06/04 07:08:44;;;;;;;20.30;10.17;;;;;;;26.48;100.00;63640.41;5091393;28;20216;-73
2022/06/04 07:11:12;;;;;;;20.90;10.73;;;;;;;26.21;100.00;63603.22;5091619;28;20204;-73
2022/06/04 07:13:41;;;;;;;25.17;10.80;;;;;;;26.04;100.00;63589.94;5091503;28;20203;-74
2022/06/04 07:16:08;;;;;;;18.23;10.03;;;;;;;26.63;100.00;63652.03;5091527;28;20195;-73
2022/06/04 07:18:35;;;;;;;22.40;10.60;;;;;;;26.68;100.00;63656.94;5091648;28;20200;-75
2022/06/04 07:21:05;;;;;;;20.60;9.17;;;;;;;27.31;100.00;63728.09;5091243;28;20348;-73
2022/06/04 07:23:34;;;;;;;20.30;8.90;;;;;;;27.23;100.00;63718.84;5091427;28;20207;-73
2022/06/04 07:26:03;;;;;;;19.63;8.40;;;;;;;27.40;100.00;63737.91;5091717;28;20204;-75
2022/06/04 07:28:30;;;;;;;22.27;8.33;;;;;;;27.49;100.00;63747.13;5091466;28;20258;-73
2022/06/04 07:30:59;;;;;;;12.63;8.80;;;;;;;27.75;100.00;63772.81;5090931;28;20239;-73
2022/06/04 07:33:27;;;;;;;21.23;9.27;;;;;;;27.87;100.00;63791.13;5091663;28;20209;-75
2022/06/04 07:35:56;;;;;;;21.10;9.63;;;;;;;27.52;100.00;63750.97;5091226;28;20206;-74
2022/06/04 07:38:22;;;;;;;23.03;9.10;;;;;;;27.84;100.00;63785.25;5091438;28;20563;-74
2022/06/04 07:40:49;;;;;;;20.00;9.67;;;;;;;27.99;100.00;63796.34;5091010;28;20251;-75
2022/06/04 07:43:17;;;;;;;14.27;8.70;;;;;;;27.94;100.00;63798.19;5091366;28;20229;-73
2022/06/04 07:45:44;;;;;;;14.20;8.73;;;;;;;28.21;100.00;63827.63;5091115;28;20199;-75
2022/06/04 07:48:13;;;;;;;15.47;8.70;;;;;;;28.38;100.00;63840.88;5091390;28;20633;-74
2022/06/04 07:50:42;;;;;;;15.83;8.23;;;;;;;28.42;100.00;63850.47;5090970;28;20663;-73
2022/06/04 07:53:09;;;;;;;15.90;7.77;;;;;;;28.45;100.00;63853.75;5091198;28;20226;-74
2022/06/04 07:55:40;;;;;;;14.90;8.97;;;;;;;27.52;100.00;63750.41;5091190;28;20252;-74
2022/06/04 07:58:07;;;;;;;13.83;8.77;;;;;;;28.01;100.00;63803.75;5091051;28;20280;-74
2022/06/04 08:00:37;;;;;;;15.33;8.70;;;;;;;28.25;100.00;63827.25;5091058;28;20200;-73
2022/06/04 08:03:04;;;;;;;14.30;8.87;;;;;;;28.10;100.00;63813.00;5091125;28;20230;-74
2022/06/04 08:05:32;;;;;;;11.90;8.07;;;;;;;28.20;100.00;63823.91;5091035;28;20269;-73
2022/06/04 08:07:59;;;;;;;9.70;7.50;;;;;;;28.26;100.00;63825.19;5090873;28;20195;-73
2022/06/04 08:10:26;;;;;;;14.80;8.23;;;;;;;28.35;100.00;63842.88;5090881;28;20200;-74
2022/06/04 08:12:53;;;;;;;13.60;8.40;;;;;;;28.48;100.00;63854.41;5091150;28;20203;-74
2022/06/04 08:15:22;;;;;;;17.00;8.00;;;;;;;28.09;100.00;63814.56;5091155;28;20199;-73
2022/06/04 08:17:49;;;;;;;13.53;8.13;;;;;;;28.62;100.00;63867.03;5090991;28;20228;-73
2022/06/04 08:20:17;;;;;;;22.47;8.27;;;;;;;28.81;100.00;63895.63;5091002;28;20222;-73
2022/06/04 08:22:46;;;;;;;13.53;8.33;;;;;;;28.79;100.00;63893.44;5090814;28;20228;-74
2022/06/04 08:25:14;;;;;;;13.53;7.67;;;;;;;28.64;100.00;63871.84;5091102;28;20209;-74
2022/06/04 08:27:41;;;;;;;9.03;6.93;;;;;;;28.36;100.00;63841.88;5091151;28;20235;-72
2022/06/04 08:30:09;;;;;;;8.47;6.53;;;;;;;28.38;100.00;63838.81;5090963;28;20269;-75
2022/06/04 08:32:36;;;;;;;9.70;6.20;;;;;;;28.23;100.00;63830.34;5091993;28;20235;-73
2022/06/04 08:35:04;;;;;;;7.83;5.77;;;;;;;28.54;100.00;63860.94;5095421;28;20244;-73
2022/06/04 08:37:31;;;;;;;11.60;6.47;;;;;;;28.77;100.00;63886.00;5094407;28;20203;-73
2022/06/04 08:40:01;;;;;;;9.13;5.90;;;;;;;29.04;100.00;63910.16;5094888;28;20238;-75
2022/06/04 08:42:50;;;;;;;10.10;5.80;;;;;;;29.02;100.00;63908.00;5094387;28;20311;-73
2022/06/04 08:45:17;;;;;;;14.07;5.97;;;;;;;29.08;100.00;63913.97;5094399;28;20666;-75
2022/06/04 08:47:47;;;;;;;10.40;4.70;;;;;;;28.87;100.00;63896.91;5094738;28;20216;-73
2022/06/04 08:50:19;;;;;;;9.57;5.00;;;;;;;28.95;100.00;63908.25;5094374;28;20268;-75
2022/06/04 08:52:49;;;;;;;11.77;5.40;;;;;;;28.90;100.00;63899.63;5093319;28;20232;-74
2022/06/04 08:58:22;;;;;;;7.17;4.80;;;;;;;28.88;100.00;63900.59;5094500;28;20208;-73
2022/06/04 09:00:54;;;;;;;12.13;5.00;;;;;;;28.85;100.00;63899.97;5095501;28;20203;-73
2022/06/04 09:03:30;;;;;;;6.37;4.57;;;;;;;29.03;100.00;63913.78;5094456;28;20233;-72
2022/06/04 09:06:15;;;;;;;11.00;5.07;;;;;;;28.87;100.00;63893.72;5094042;28;20193;-74
2022/06/04 09:08:51;;;;;;;14.20;4.87;;;;;;;28.97;100.00;63907.81;5094572;28;20208;-73
2022/06/04 09:11:26;;;;;;;6.10;5.00;;;;;;;28.99;100.00;63909.44;5094766;28;20200;-74
2022/06/04 09:14:08;;;;;;;9.87;4.83;;;;;;;28.62;100.00;63872.28;5093918;28;20207;-73
2022/06/04 09:16:39;;;;;;;7.50;4.97;;;;;;;28.83;100.00;63892.53;5093933;28;20204;-72
2022/06/04 09:19:16;;;;;;;8.57;5.20;;;;;;;28.37;100.00;63847.66;5093891;28;20203;-74
2022/06/04 09:21:43;;;;;;;8.53;4.80;;;;;;;29.01;100.00;63917.41;5094039;28;20323;-75
2022/06/04 09:24:10;;;;;;;8.53;5.10;;;;;;;29.25;100.00;63939.84;5093774;28;20199;-73
2022/06/04 09:26:41;;;;;;;10.70;4.60;;;;;;;29.32;100.00;63944.88;5094009;28;20203;-74
2022/06/04 09:29:25;;;;;;;7.63;4.73;;;;;;;29.38;100.00;63954.03;5093604;28;20245;-74
2022/06/04 09:32:03;;;;;;;8.20;4.40;;;;;;;29.45;100.00;63964.28;5093628;28;20239;-74
2022/06/04 09:34:40;;;;;;;7.77;5.00;;;;;;;29.44;100.00;63963.19;5093738;28;20201;-74
2022/06/04 09:37:10;;;;;;;11.53;5.10;;;;;;;29.26;100.00;63943.59;5093732;28;20285;-75
2022/06/04 09:39:40;;;;;;;8.77;4.80;;;;;;;29.93;100.00;64011.38;5093006;28;20233;-74
2022/06/04 09:42:22;;;;;;;7.83;4.70;;;;;;;30.60;100.00;64087.09;5093255;28;20705;-74
2022/06/04 09:44:53;;;;;;;8.57;4.60;;;;;;;31.14;100.00;64142.88;5092893;28;20733;-75
2022/06/04 09:47:23;;;;;;;7.63;4.93;;;;;;;31.46;100.00;64177.28;5093378;28;20206;-74
2022/06/04 09:49:56;;;;;;;8.83;4.57;;;;;;;31.89;100.00;64224.22;5093686;28;20202;-74
2022/06/04 09:52:30;;;;;;;8.03;5.03;;;;;;;32.26;100.00;64264.66;5092908;28;20667;-76
2022/06/04 09:55:03;;;;;;;7.87;4.60;;;;;;;32.63;100.00;64304.00;5093755;28;20192;-74
2022/06/04 09:57:35;;;;;;;4.67;3.93;;;;;;;32.75;100.00;64317.69;5093555;28;20253;-74
2022/06/04 10:00:05;;;;;;;12.43;4.70;;;;;;;32.16;100.00;64253.72;5093313;28;20201;-74
2022/06/04 10:02:33;;;;;;;6.90;4.77;;;;;;;32.57;100.00;64297.47;5093125;28;20315;-73
2022/06/04 10:05:04;;;;;;;9.83;5.13;;;;;;;32.40;100.00;64277.31;5093394;28;20224;-74
2022/06/04 10:07:34;;;;;;;8.63;5.03;;;;;;;31.69;100.00;64202.41;5093429;28;20200;-74
2022/06/04 10:10:13;;;;;;;6.63;4.87;;;;;;;31.82;100.00;64211.31;5093408;28;20232;-75
2022/06/04 10:15:38;;;;;;;8.40;4.40;;;;;;;31.82;100.00;64216.56;5080415;28;20297;-76
2022/06/04 10:18:18;;;;;;;9.53;4.70;;;;;;;32.01;100.00;64232.09;5093185;28;20203;-74
2022/06/04 10:20:53;;;;;;;11.00;4.80;;;;;;;31.98;100.00;64233.53;5092766;28;20198;-74
2022/06/04 10:23:22;;;;;;;16.80;4.70;;;;;;;31.98;100.00;64236.72;5092608;28;20319;-75
2022/06/04 10:26:18;;;;;;;6.57;4.57;;;;;;;31.98;100.00;64231.44;5092765;28;20204;-74
2022/06/04 10:28:59;;;;;;;8.17;4.73;;;;;;;31.78;100.00;64209.56;5092857;28;20208;-74
2022/06/04 10:31:35;;;;;;;7.40;4.50;;;;;;;31.84;100.00;64220.84;5092301;28;20233;-74
2022/06/04 10:34:16;;;;;;;6.97;4.30;;;;;;;31.93;100.00;64226.00;5092749;28;20205;-73
2022/06/04 10:36:53;;;;;;;10.30;4.70;;;;;;;32.01;100.00;64234.19;5092136;28;20260;-75
2022/06/04 10:39:33;;;;;;;13.60;5.33;;;;;;;32.52;100.00;64292.00;5092597;28;20209;-74
2022/06/04 10:42:09;;;;;;;8.77;4.60;;;;;;;32.83;100.00;64329.06;5092422;28;20224;-74
2022/06/04 10:44:53;;;;;;;8.90;4.53;;;;;;;32.78;100.00;64317.78;5079357;28;20196;-73
2022/06/04 10:47:27;;;;;;;8.30;4.53;;;;;;;32.09;100.00;64245.53;5092228;28;20723;-74
2022/06/04 10:50:20;;;;;;;11.27;4.93;;;;;;;32.08;100.00;64245.00;5092393;28;20241;-74
2022/06/04 10:52:52;;;;;;;9.67;5.43;;;;;;;32.94;100.00;64341.06;5092216;28;20699;-75
2022/06/04 10:55:39;;;;;;;6.80;5.33;;;;;;;33.26;100.00;64367.63;5092430;28;20208;-74
2022/06/04 10:58:27;;;;;;;6.43;4.90;;;;;;;33.34;100.00;64381.09;5095997;28;20210;-74
2022/06/04 11:01:03;;;;;;;6.53;4.67;;;;;;;33.49;100.00;64395.41;5104359;28;20207;-73
2022/06/04 11:03:39;;;;;;;6.63;5.23;;;;;;;33.22;100.00;64363.25;5095657;28;20234;-73
2022/06/04 11:06:11;;;;;;;8.30;5.10;;;;;;;33.39;100.00;64384.47;5096335;28;20586;-73
2022/06/04 11:08:44;;;;;;;12.17;5.10;;;;;;;32.91;100.00;64329.31;5097018;28;20206;-75
2022/06/04 11:11:18;;;;;;;7.60;4.90;;;;;;;32.98;100.00;64342.28;5097166;28;20230;-74
2022/06/04 11:13:51;;;;;;;10.53;4.80;;;;;;;33.38;100.00;64385.47;5096613;28;20653;-75
2022/06/04 11:16:23;;;;;;;10.07;5.00;;;;;;;33.73;100.00;64421.09;5096515;28;20207;-74
2022/06/04 11:18:56;;;;;;;8.03;4.70;;;;;;;33.88;100.00;64440.16;5096458;28;20199;-74
2022/06/04 11:21:35;;;;;;;6.73;4.90;;;;;;;33.56;100.00;64405.72;5097056;28;20224;-73
2022/06/04 11:24:11;;;;;;;7.50;4.57;;;;;;;33.38;100.00;64385.47;5095895;28;20284;-73
2022/06/04 11:26:43;;;;;;;11.90;5.57;;;;;;;33.05;100.00;64347.84;5095507;28;20194;-74
2022/06/04 11:29:12;;;;;;;5.47;4.63;;;;;;;33.31;100.00;64373.06;5096447;28;20199;-73
2022/06/04 11:31:55;;;;;;;7.00;4.50;;;;;;;33.90;100.00;64442.91;5095253;28;20689;-73
2022/06/04 11:34:42;;;;;;;6.43;4.70;;;;;;;33.63;100.00;64412.81;5092818;28;20203;-73
2022/06/04 11:37:18;;;;;;;7.17;4.83;;;;;;;33.87;100.00;64439.63;5091867;28;20207;-73
2022/06/04 11:40:05;;;;;;;10.37;5.20;;;;;;;34.21;100.00;64473.09;5091539;28;20306;-73
2022/06/04 11:42:47;;;;;;;7.50;5.00;;;;;;;34.12;100.00;64471.19;5091310;28;20233;-75
2022/06/04 11:45:30;;;;;;;8.17;4.80;;;;;;;34.07;100.00;64457.78;5091527;28;20612;-74
2022/06/04 11:48:11;;;;;;;9.23;4.90;;;;;;;34.62;100.00;64517.97;5092250;28;20192;-75
2022/06/04 11:50:51;;;;;;;10.17;5.10;;;;;;;34.53;100.00;64510.78;5091350;28;20220;-75
2022/06/04 11:53:26;;;;;;;11.33;4.70;;;;;;;34.67;100.00;64526.09;5092058;28;20209;-74